Time;durP1;ratioP1;P1;durP2;ratioP2;P2;SDS_P1;SDS_P2;PMS_P1;PMS_P2;Temp;Humidity;BMP_temperature;BMP_pressure;BME280_temperature;BME280_humidity;BME280_pressure;Samples;Min_cycle;Max_cycle;Signal;HPM_P1;HPM_P2
2022/06/05 00:00:29;;;;;;;;;;;;;;;24.53;60.57;99997.41;4370116;32;19999;-83
2022/06/05 00:02:59;;;;;;;;;;;;;;;24.61;60.24;99988.34;4382422;32;20263;-82
2022/06/05 00:05:28;;;;;;;;;;;;;;;24.47;60.69;99992.34;4366610;32;20071;-82
2022/06/05 00:08:09;;;;;;;;;;;;;;;24.47;60.80;99992.34;4346596;32;20005;-83
2022/06/05 00:10:42;;;;;;;;;;;;;;;24.31;61.30;99991.19;4348377;32;19987;-83
2022/06/05 00:13:13;;;;;;;;;;;;;;;24.46;60.78;99995.94;4344935;32;19986;-83
2022/06/05 00:15:40;;;;;;;;;;;;;;;24.48;60.83;99988.81;4356153;32;20262;-83
2022/06/05 00:18:07;;;;;;;;;;;;;;;24.47;60.92;99986.22;4344309;32;20017;-82
2022/06/05 00:20:34;;;;;;;;;;;;;;;24.41;61.24;99976.75;4349106;32;19975;-83
2022/06/05 00:23:01;;;;;;;;;;;;;;;24.52;60.96;99985.13;4339315;32;20034;-83
2022/06/05 00:25:33;;;;;;;;;;;;;;;24.52;61.13;99976.31;4366960;32;20021;-82
2022/06/05 00:28:03;;;;;;;;;;;;;;;24.61;60.83;99977.75;4363087;32;19994;-82
2022/06/05 00:30:30;;;;;;;;;;;;;;;24.42;61.67;99981.09;4356099;32;19987;-83
2022/06/05 00:33:02;;;;;;;;;;;;;;;24.46;61.53;99982.72;4356423;32;20042;-83
2022/06/05 00:35:33;;;;;;;;;;;;;;;24.47;61.56;99981.78;4348340;32;19978;-83
2022/06/05 00:38:03;;;;;;;;;;;;;;;24.33;61.97;99978.78;4044391;32;10001038;-82
2022/06/05 00:40:39;;;;;;;;;;;;;;;24.32;61.97;99970.00;4347566;32;20886;-82
2022/06/05 00:43:10;;;;;;;;;;;;;;;24.46;61.51;99969.47;4063109;32;10001153;-82
2022/06/05 00:45:39;;;;;;;;;;;;;;;24.58;61.12;99963.69;4361294;32;20003;-83
2022/06/05 00:48:07;;;;;;;;;;;;;;;24.67;60.80;99962.47;4343171;32;20027;-86
2022/06/05 00:50:34;;;;;;;;;;;;;;;24.62;60.84;99959.16;4347360;32;19972;-84
2022/06/05 00:53:03;;;;;;;;;;;;;;;24.61;60.78;99961.88;4357296;32;20363;-84
2022/06/05 00:55:31;;;;;;;;;;;;;;;24.61;60.83;99961.88;4357425;32;19974;-82
2022/06/05 00:57:58;;;;;;;;;;;;;;;24.71;60.43;99963.22;4356489;32;20062;-83
2022/06/05 01:00:29;;;;;;;;;;;;;;;24.76;60.23;99950.63;4316321;32;20003;-83
2022/06/05 01:02:57;;;;;;;;;;;;;;;24.78;60.07;99959.41;4272316;33;20014;-82
2022/06/05 01:05:25;;;;;;;;;;;;;;;24.76;60.08;99953.28;4347321;32;20709;-83
2022/06/05 01:07:52;;;;;;;;;;;;;;;24.75;60.01;99948.94;4343501;32;19995;-83
2022/06/05 01:10:20;;;;;;;;;;;;;;;24.78;59.86;99944.38;4347015;32;19991;-83
2022/06/05 01:13:11;;;;;;;;;;;;;;;24.79;59.82;99942.56;4356678;32;19987;-83
2022/06/05 01:15:57;;;;;;;;;;;;;;;24.78;59.86;99938.22;4356254;32;19992;-82
2022/06/05 01:18:34;;;;;;;;;;;;;;;24.76;59.88;99934.75;4355964;32;20317;-82
2022/06/05 01:21:04;;;;;;;;;;;;;;;24.64;60.23;99945.88;4364129;32;20007;-83
2022/06/05 01:23:31;;;;;;;;;;;;;;;24.65;60.04;99937.00;4365088;32;19983;-83
2022/06/05 01:26:04;;;;;;;;;;;;;;;24.55;60.37;99947.94;4362852;32;20014;-83
2022/06/05 01:28:32;;;;;;;;;;;;;;;24.55;60.28;99942.66;4356128;32;20018;-82
2022/06/05 01:31:10;;;;;;;;;;;;;;;24.46;60.56;99943.00;4308792;32;19983;-82
2022/06/05 01:33:39;;;;;;;;;;;;;;;24.55;60.20;99941.78;4342802;32;20473;-82
2022/06/05 01:36:18;;;;;;;;;;;;;;;24.52;60.17;99941.91;4342348;32;20329;-83
2022/06/05 01:38:47;;;;;;;;;;;;;;;24.48;60.32;99950.91;4350056;32;20440;-84
2022/06/05 01:41:34;;;;;;;;;;;;;;;24.44;60.38;99944.88;4343531;32;20002;-83
2022/06/05 01:44:03;;;;;;;;;;;;;;;24.47;60.22;99952.66;4348433;32;19998;-83
2022/06/05 01:46:34;;;;;;;;;;;;;;;24.38;60.62;99950.38;4040589;32;10000598;-82
2022/06/05 01:49:04;;;;;;;;;;;;;;;24.38;60.61;99955.66;4341000;32;19999;-83
2022/06/05 01:51:33;;;;;;;;;;;;;;;24.45;60.50;99946.59;4346365;32;20050;-83
2022/06/05 01:54:00;;;;;;;;;;;;;;;24.52;60.03;99942.78;4372427;32;20042;-83
2022/06/05 01:56:30;;;;;;;;;;;;;;;24.47;60.15;99944.72;4350597;32;19990;-83
2022/06/05 01:58:59;;;;;;;;;;;;;;;24.45;60.35;99943.94;4342216;32;19983;-83
2022/06/05 02:01:27;;;;;;;;;;;;;;;24.52;60.01;99952.50;4342236;32;20359;-83
2022/06/05 02:03:58;;;;;;;;;;;;;;;24.45;60.26;99946.59;4346177;32;20033;-83
2022/06/05 02:06:31;;;;;;;;;;;;;;;24.57;60.02;99942.59;4367761;32;19997;-83
2022/06/05 02:09:09;;;;;;;;;;;;;;;24.50;60.34;99939.31;4367282;32;19997;-83
2022/06/05 02:11:36;;;;;;;;;;;;;;;24.47;60.35;99944.72;4338492;33;20043;-83
2022/06/05 02:14:04;;;;;;;;;;;;;;;24.44;60.34;99944.88;4332665;33;19976;-83
2022/06/05 02:16:31;;;;;;;;;;;;;;;24.50;60.19;99949.91;4324690;33;20007;-83
2022/06/05 02:18:59;;;;;;;;;;;;;;;24.48;60.13;99957.06;4324618;33;20002;-83
2022/06/05 02:21:26;;;;;;;;;;;;;;;24.48;60.24;99949.13;4312862;32;20001;-83
2022/06/05 02:23:53;;;;;;;;;;;;;;;24.45;60.32;99946.59;4364949;32;19983;-83
2022/06/05 02:26:20;;;;;;;;;;;;;;;24.45;60.28;99951.88;4348858;32;19994;-83
2022/06/05 02:28:47;;;;;;;;;;;;;;;24.47;60.16;99955.31;4348060;32;19990;-82
2022/06/05 02:31:30;;;;;;;;;;;;;;;24.47;60.15;99949.16;4349447;32;19999;-82
2022/06/05 02:34:01;;;;;;;;;;;;;;;24.29;60.65;99945.44;4362672;32;19979;-82
2022/06/05 02:36:34;;;;;;;;;;;;;;;24.35;60.55;99945.19;4356781;32;19987;-82
2022/06/05 02:39:17;;;;;;;;;;;;;;;24.31;60.39;99938.28;4357951;32;19979;-83
2022/06/05 02:41:59;;;;;;;;;;;;;;;24.38;59.97;99939.78;4347408;32;20006;-84
2022/06/05 02:44:32;;;;;;;;;;;;;;;24.23;60.39;99940.37;4354988;32;20251;-85
2022/06/05 02:46:59;;;;;;;;;;;;;;;24.31;59.99;99933.00;4343786;32;19992;-85
2022/06/05 02:49:28;;;;;;;;;;;;;;;24.17;60.43;99943.25;4361749;32;20478;-85
2022/06/05 02:51:56;;;;;;;;;;;;;;;24.21;60.24;99942.22;4340742;32;19979;-85
2022/06/05 02:54:24;;;;;;;;;;;;;;;24.27;59.61;99942.84;4367080;32;19984;-85
2022/06/05 02:56:52;;;;;;;;;;;;;;;24.22;59.57;99941.28;4340550;32;20013;-84
2022/06/05 02:59:18;;;;;;;;;;;;;;;24.21;59.76;99947.50;4333829;32;20007;-85
2022/06/05 03:04:31;;;;;;;;;;;;;;;24.21;59.65;99939.56;4345517;32;19987;-84
2022/06/05 03:06:58;;;;;;;;;;;;;;;24.04;60.21;99940.22;4353795;32;20028;-85
2022/06/05 03:09:25;;;;;;;;;;;;;;;23.98;60.35;99938.66;4371020;32;19982;-85
2022/06/05 03:11:52;;;;;;;;;;;;;;;23.93;60.41;99950.31;4370524;32;19975;-84
2022/06/05 03:14:19;;;;;;;;;;;;;;;23.89;60.40;99950.44;4351014;32;19998;-84
2022/06/05 03:16:46;;;;;;;;;;;;;;;23.98;60.16;99946.59;4345302;32;20021;-84
2022/06/05 03:19:13;;;;;;;;;;;;;;;23.89;60.68;99952.22;4363549;32;20404;-84
2022/06/05 03:21:40;;;;;;;;;;;;;;;23.91;60.60;99960.97;4365039;32;20023;-84
2022/06/05 03:24:07;;;;;;;;;;;;;;;23.75;61.03;99954.50;4360085;32;19991;-84
2022/06/05 03:26:34;;;;;;;;;;;;;;;23.75;60.72;99949.22;4359537;32;20042;-85
2022/06/05 03:29:02;;;;;;;;;;;;;;;23.76;60.93;99951.81;4357930;32;20066;-85
2022/06/05 03:31:30;;;;;;;;;;;;;;;23.72;61.19;99959.91;4362522;32;19991;-85
2022/06/05 03:33:57;;;;;;;;;;;;;;;23.81;60.87;99962.22;4356261;32;20005;-85
2022/06/05 03:36:24;;;;;;;;;;;;;;;23.73;61.17;99962.47;4355994;32;19995;-84
2022/06/05 03:38:51;;;;;;;;;;;;;;;23.74;61.11;99971.28;4355010;32;19994;-85
2022/06/05 03:41:19;;;;;;;;;;;;;;;23.66;61.39;99972.38;4342552;32;20022;-85
2022/06/05 03:43:46;;;;;;;;;;;;;;;23.74;61.18;99979.19;4342985;32;19999;-84
2022/06/05 03:46:14;;;;;;;;;;;;;;;23.72;61.41;99981.06;4363609;32;19990;-85
2022/06/05 03:48:41;;;;;;;;;;;;;;;23.67;61.60;99990.00;4349524;32;20494;-85
2022/06/05 03:51:09;;;;;;;;;;;;;;;23.71;61.92;99997.81;4346550;32;20046;-85
2022/06/05 03:53:38;;;;;;;;;;;;;;;23.77;61.88;99994.94;4342671;32;19991;-85
2022/06/05 03:56:13;;;;;;;;;;;;;;;23.71;62.11;100006.63;4329900;32;20001;-84
2022/06/05 03:58:40;;;;;;;;;;;;;;;23.75;62.07;100002.09;4346448;32;20524;-85
2022/06/05 04:01:08;;;;;;;;;;;;;;;23.81;61.80;100008.03;4351059;32;19982;-85
2022/06/05 04:03:36;;;;;;;;;;;;;;;23.79;61.93;100019.56;4356022;32;19983;-84
2022/06/05 04:06:07;;;;;;;;;;;;;;;23.92;61.48;100010.28;4362260;32;20037;-84
2022/06/05 04:08:34;;;;;;;;;;;;;;;23.89;61.66;100007.75;4344846;32;19995;-84
2022/06/05 04:11:07;;;;;;;;;;;;;;;23.94;61.57;100013.72;4337847;32;19979;-85
2022/06/05 04:13:34;;;;;;;;;;;;;;;24.01;61.39;100023.16;4342080;32;20086;-85
2022/06/05 04:16:01;;;;;;;;;;;;;;;24.04;61.36;100025.69;4353320;32;20012;-84
2022/06/05 04:18:28;;;;;;;;;;;;;;;24.00;61.60;100024.09;4343128;32;20072;-84
2022/06/05 04:20:55;;;;;;;;;;;;;;;23.96;61.99;100033.03;4363049;32;20396;-84
2022/06/05 04:23:22;;;;;;;;;;;;;;;24.08;61.69;100031.72;4357572;32;20305;-84
2022/06/05 04:25:49;;;;;;;;;;;;;;;24.17;61.54;100025.25;4361980;32;19987;-84
2022/06/05 04:28:16;;;;;;;;;;;;;;;24.14;61.80;100027.09;4341989;32;20046;-84
2022/06/05 04:30:43;;;;;;;;;;;;;;;24.22;61.80;100034.75;4355809;32;19991;-84
2022/06/05 04:33:10;;;;;;;;;;;;;;;24.06;62.53;100038.88;4355634;32;20375;-85
2022/06/05 04:35:36;;;;;;;;;;;;;;;24.13;62.55;100040.37;4355979;32;20050;-85
2022/06/05 04:38:03;;;;;;;;;;;;;;;24.22;62.26;100044.44;4355707;32;20003;-85
2022/06/05 04:40:30;;;;;;;;;;;;;;;24.12;62.83;100044.81;4341770;32;20051;-84
2022/06/05 04:42:57;;;;;;;;;;;;;;;24.17;63.00;100041.97;4355343;32;20048;-84
2022/06/05 04:45:24;;;;;;;;;;;;;;;24.14;63.04;100042.09;4355598;32;20363;-85
2022/06/05 04:47:51;;;;;;;;;;;;;;;24.44;62.25;100045.44;4335783;32;20022;-84
2022/06/05 04:50:18;;;;;;;;;;;;;;;24.28;62.87;100044.22;4341161;32;19987;-85
2022/06/05 04:52:45;;;;;;;;;;;;;;;24.30;62.80;100047.69;4350549;32;19979;-85
2022/06/05 04:55:12;;;;;;;;;;;;;;;24.18;63.35;100053.41;4340357;32;20348;-84
2022/06/05 04:57:39;;;;;;;;;;;;;;;24.30;62.84;100055.62;4346098;32;19979;-85
2022/06/05 05:00:06;;;;;;;;;;;;;;;24.36;62.71;100060.69;4327249;33;19980;-85
2022/06/05 05:02:34;;;;;;;;;;;;;;;24.44;62.29;100060.44;4327040;32;20019;-84
2022/06/05 05:05:01;;;;;;;;;;;;;;;24.61;61.83;100073.03;4351085;32;19991;-84
2022/06/05 05:07:28;;;;;;;;;;;;;;;24.50;62.31;100071.63;4355864;32;20744;-85
2022/06/05 05:09:55;;;;;;;;;;;;;;;24.53;62.13;100076.81;4335910;32;19995;-84
2022/06/05 05:12:22;;;;;;;;;;;;;;;24.47;62.26;100082.34;4349610;32;19987;-82
2022/06/05 05:14:49;;;;;;;;;;;;;;;24.47;62.32;100084.97;4359360;32;20021;-82
2022/06/05 05:17:16;;;;;;;;;;;;;;;24.54;61.93;100094.44;4359432;32;19983;-82
2022/06/05 05:19:43;;;;;;;;;;;;;;;24.59;61.63;100097.75;4329901;32;19994;-82
2022/06/05 05:22:10;;;;;;;;;;;;;;;24.52;61.93;100101.56;4363615;32;19993;-83
2022/06/05 05:24:37;;;;;;;;;;;;;;;24.61;61.30;100105.66;4346108;32;19991;-82
2022/06/05 05:27:04;;;;;;;;;;;;;;;24.45;62.13;100115.09;4361535;32;20329;-82
2022/06/05 05:29:31;;;;;;;;;;;;;;;24.65;61.59;100111.72;4355459;32;19993;-82
2022/06/05 05:31:58;;;;;;;;;;;;;;;24.61;61.53;100112.75;4353890;32;20055;-82
2022/06/05 05:34:24;;;;;;;;;;;;;;;24.55;61.55;100112.03;4341930;32;20292;-82
2022/06/05 05:36:51;;;;;;;;;;;;;;;24.53;61.48;100120.94;4357239;32;20321;-81
2022/06/05 05:42:08;;;;;;;;;;;;;;;24.34;61.81;100115.44;4365362;32;20350;-83
2022/06/05 05:44:35;;;;;;;;;;;;;;;24.67;61.10;100109.88;4359198;32;20545;-83
2022/06/05 05:47:03;;;;;;;;;;;;;;;24.86;60.39;100115.34;4341301;32;20022;-84
2022/06/05 05:49:30;;;;;;;;;;;;;;;24.83;60.38;100111.87;4329277;32;20003;-83
2022/06/05 05:51:57;;;;;;;;;;;;;;;24.54;60.80;100107.69;4363045;32;19983;-83
2022/06/05 05:54:24;;;;;;;;;;;;;;;24.82;60.16;100103.97;4359169;32;19997;-84
2022/06/05 05:56:51;;;;;;;;;;;;;;;24.71;60.80;100108.81;4345795;32;20344;-83
2022/06/05 05:59:19;;;;;;;;;;;;;;;24.76;60.23;100104.19;4341460;32;19986;-84
2022/06/05 06:01:46;;;;;;;;;;;;;;;24.87;59.80;100106.47;4365589;32;20329;-84
2022/06/05 06:04:13;;;;;;;;;;;;;;;24.70;60.31;100104.47;4370264;32;20025;-84
2022/06/05 06:06:41;;;;;;;;;;;;;;;24.72;59.98;100102.59;4368468;32;19986;-82
2022/06/05 06:09:09;;;;;;;;;;;;;;;24.68;60.12;100101.84;4372237;32;19993;-83
2022/06/05 06:11:37;;;;;;;;;;;;;;;24.46;61.06;100107.09;4348088;32;20034;-83
2022/06/05 06:14:05;;;;;;;;;;;;;;;24.73;60.32;100110.50;4354840;32;20308;-82
2022/06/05 06:16:31;;;;;;;;;;;;;;;24.56;60.98;100105.81;4360266;32;20022;-83
2022/06/05 06:18:59;;;;;;;;;;;;;;;24.78;60.33;100100.59;4351543;32;19996;-82
2022/06/05 06:21:26;;;;;;;;;;;;;;;24.69;59.67;100102.72;4363115;32;20042;-82
2022/06/05 06:23:58;;;;;;;;;;;;;;;24.86;59.48;100095.00;4352013;32;20033;-81
2022/06/05 06:26:26;;;;;;;;;;;;;;;24.93;58.45;100085.91;4359667;32;19983;-82
2022/06/05 06:28:53;;;;;;;;;;;;;;;25.23;58.24;100085.63;4350786;32;19979;-81
2022/06/05 06:31:20;;;;;;;;;;;;;;;25.65;55.79;100084.78;4370060;32;20347;-82
2022/06/05 06:33:48;;;;;;;;;;;;;;;25.88;55.81;100094.47;4365752;32;20001;-82
2022/06/05 06:36:16;;;;;;;;;;;;;;;25.96;54.67;100093.16;4360910;32;19975;-81
2022/06/05 06:39:03;;;;;;;;;;;;;;;25.96;54.94;100098.47;4333976;32;19979;-82
2022/06/05 06:41:30;;;;;;;;;;;;;;;25.81;55.46;100096.47;4363927;32;20006;-82
2022/06/05 06:43:57;;;;;;;;;;;;;;;25.75;55.50;100096.75;4354315;32;19999;-84
2022/06/05 06:46:25;;;;;;;;;;;;;;;25.48;56.20;100089.00;4358160;32;20037;-85
2022/06/05 06:48:52;;;;;;;;;;;;;;;25.85;55.16;100095.44;4361515;32;19985;-82
2022/06/05 06:51:19;;;;;;;;;;;;;;;25.96;54.67;100085.22;4353682;32;19995;-81
2022/06/05 06:53:46;;;;;;;;;;;;;;;25.68;55.33;100079.34;4358745;32;20022;-83
2022/06/05 06:56:13;;;;;;;;;;;;;;;25.44;55.47;100071.50;4349981;32;19979;-83
2022/06/05 06:58:40;;;;;;;;;;;;;;;25.76;55.59;100077.22;4354828;32;20054;-80
2022/06/05 07:01:07;;;;;;;;;;;;;;;25.83;55.07;100083.16;4362957;32;20353;-81
2022/06/05 07:03:35;;;;;;;;;;;;;;;26.00;54.37;100085.09;4354747;32;20030;-82
2022/06/05 07:06:03;;;;;;;;;;;;;;;26.04;54.21;100081.34;4353771;32;19983;-79
2022/06/05 07:08:30;;;;;;;;;;;;;;;25.78;55.16;100080.66;4355262;32;19975;-81
2022/06/05 07:10:57;;;;;;;;;;;;;;;26.01;54.52;100070.91;4361473;32;20001;-83
2022/06/05 07:13:24;;;;;;;;;;;;;;;25.98;54.93;100080.72;4344606;32;19999;-80
2022/06/05 07:15:51;;;;;;;;;;;;;;;26.11;54.25;100074.87;4341278;32;19983;-81
2022/06/05 07:18:18;;;;;;;;;;;;;;;26.47;53.70;100079.44;4341224;32;19979;-84
2022/06/05 07:20:46;;;;;;;;;;;;;;;26.73;52.95;100065.84;4343021;32;20013;-82
2022/06/05 07:23:13;;;;;;;;;;;;;;;26.72;52.83;100066.78;4364005;32;20025;-81
2022/06/05 07:25:44;;;;;;;;;;;;;;;26.87;54.14;100068.72;4360972;32;20826;-80
2022/06/05 07:28:11;;;;;;;;;;;;;;;27.08;53.21;100071.28;4356024;32;20045;-83
2022/06/05 07:30:38;;;;;;;;;;;;;;;27.13;52.20;100063.97;4347291;32;19998;-82
2022/06/05 07:33:05;;;;;;;;;;;;;;;27.45;51.91;100069.50;4353994;32;19990;-84
2022/06/05 07:35:32;;;;;;;;;;;;;;;27.88;50.72;100062.03;4355301;32;19996;-82
2022/06/05 07:37:59;;;;;;;;;;;;;;;28.01;50.45;100073.75;4362233;32;19975;-80
2022/06/05 07:40:37;;;;;;;;;;;;;;;27.61;49.14;100075.78;4346725;32;20672;-89
2022/06/05 07:43:04;;;;;;;;;;;;;;;27.57;51.13;100079.53;4352679;32;20013;-86
2022/06/05 07:45:31;;;;;;;;;;;;;;;27.90;49.01;100078.78;4353826;32;20029;-85
2022/06/05 07:47:58;;;;;;;;;;;;;;;27.78;49.31;100073.12;4371211;32;20045;-93
2022/06/05 07:50:25;;;;;;;;;;;;;;;27.94;49.43;100080.34;4367530;32;20778;-92
2022/06/05 07:55:38;;;;;;;;;;;;;;;27.56;51.79;100083.12;4357336;32;20013;-90
2022/06/05 07:58:05;;;;;;;;;;;;;;;28.38;48.32;100085.13;4349955;32;19979;-91
2022/06/05 08:00:33;;;;;;;;;;;;;;;27.79;48.47;100090.84;4357907;32;19998;-93
2022/06/05 08:03:00;;;;;;;;;;;;;;;27.66;49.68;100097.66;4366010;32;19994;-92
2022/06/05 08:05:27;;;;;;;;;;;;;;;27.76;49.53;100090.97;4368974;32;20031;-96
2022/06/05 08:07:54;;;;;;;;;;;;;;;27.45;49.84;100093.44;4369096;32;19979;-89
2022/06/05 08:10:21;;;;;;;;;;;;;;;27.65;49.72;100092.44;4367206;32;19975;-84
2022/06/05 08:12:49;;;;;;;;;;;;;;;27.66;50.60;100095.00;4361678;32;20835;-90
2022/06/05 08:15:17;;;;;;;;;;;;;;;27.72;49.29;100084.06;4360808;32;19989;-88
2022/06/05 08:17:44;;;;;;;;;;;;;;;27.52;50.10;100092.19;4360180;32;19987;-88
2022/06/05 08:20:11;;;;;;;;;;;;;;;28.04;48.25;100084.22;4370258;32;20026;-91
2022/06/05 08:22:38;;;;;;;;;;;;;;;28.21;48.11;100092.19;4377507;32;20823;-89
2022/06/05 08:25:06;;;;;;;;;;;;;;;28.33;47.61;100089.81;4363753;32;19982;-81
2022/06/05 08:27:32;;;;;;;;;;;;;;;28.19;50.61;100094.06;4359564;32;20351;-81
2022/06/05 08:30:00;;;;;;;;;;;;;;;28.34;49.80;100096.88;4360994;32;20082;-81
2022/06/05 08:32:28;;;;;;;;;;;;;;;28.48;47.53;100094.34;4356865;32;20005;-84
2022/06/05 08:34:55;;;;;;;;;;;;;;;28.51;47.07;100095.03;4349018;32;19986;-83
2022/06/05 08:43:08;;;;;;;;;;;;;;;28.02;50.26;100097.63;4358365;32;20337;-83
2022/06/05 08:45:54;;;;;;;;;;;;;;;28.22;47.71;100099.22;4370411;32;19979;-85
2022/06/05 08:48:37;;;;;;;;;;;;;;;28.16;49.04;100099.56;4367381;32;20321;-86
2022/06/05 08:51:25;;;;;;;;;;;;;;;28.32;47.90;100104.06;4356883;32;19983;-82
2022/06/05 08:53:56;;;;;;;;;;;;;;;28.15;48.11;100103.16;4328597;32;20034;-84
2022/06/05 08:56:31;;;;;;;;;;;;;;;28.18;48.27;100103.00;4330525;32;19997;-86
2022/06/05 08:59:00;;;;;;;;;;;;;;;28.22;48.30;100091.25;4355542;32;20274;-84
2022/06/05 09:01:32;;;;;;;;;;;;;;;28.50;47.88;100092.47;4342387;32;19987;-82
2022/06/05 09:04:02;;;;;;;;;;;;;;;28.92;46.82;100088.37;4355285;32;19974;-84
2022/06/05 09:06:33;;;;;;;;;;;;;;;29.21;45.98;100084.09;4348077;32;19987;-83
2022/06/05 09:09:05;;;;;;;;;;;;;;;29.36;46.90;100087.72;4344031;32;20939;-85
2022/06/05 09:11:44;;;;;;;;;;;;;;;29.27;46.37;100085.56;4359796;32;19987;-81
2022/06/05 09:14:21;;;;;;;;;;;;;;;28.83;48.43;100075.56;4354357;32;20007;-81
2022/06/05 09:16:49;;;;;;;;;;;;;;;29.47;47.04;100082.59;4357291;32;20000;-83
2022/06/05 09:19:22;;;;;;;;;;;;;;;29.61;46.45;100074.69;4357206;32;19975;-82
2022/06/05 09:21:50;;;;;;;;;;;;;;;29.71;45.99;100072.31;4357400;32;19991;-81
2022/06/05 09:24:24;;;;;;;;;;;;;;;29.96;45.39;100084.19;4350219;32;20017;-81
2022/06/05 09:26:54;;;;;;;;;;;;;;;30.42;43.46;100084.91;4346105;32;20014;-82
2022/06/05 09:29:36;;;;;;;;;;;;;;;30.41;43.66;100072.53;4327196;33;19999;-81
2022/06/05 09:32:03;;;;;;;;;;;;;;;30.00;44.15;100067.03;4342834;32;20251;-81
2022/06/05 09:34:34;;;;;;;;;;;;;;;30.24;44.61;100075.38;4015568;33;10004339;-81
2022/06/05 09:37:08;;;;;;;;;;;;;;;29.52;44.27;100085.84;4310268;33;19992;-82
2022/06/05 09:39:45;;;;;;;;;;;;;;;29.75;46.63;100089.00;4310397;33;20398;-81
2022/06/05 09:42:23;;;;;;;;;;;;;;;29.98;44.77;100091.16;4324396;33;19980;-82
2022/06/05 09:44:50;;;;;;;;;;;;;;;30.07;42.78;100095.94;4326279;33;20002;-82
2022/06/05 09:47:22;;;;;;;;;;;;;;;29.94;43.60;100094.09;4321346;33;19999;-81
2022/06/05 09:49:50;;;;;;;;;;;;;;;29.64;44.34;100098.50;4312997;33;20052;-86
2022/06/05 09:52:19;;;;;;;;;;;;;;;30.19;42.85;100104.16;4310088;33;19977;-83
2022/06/05 09:54:50;;;;;;;;;;;;;;;29.97;43.02;100104.59;4312130;33;20413;-82
2022/06/05 10:00:07;;;;;;;;;;;;;;;29.30;44.80;100106.72;4311831;33;20315;-81
2022/06/05 10:02:35;;;;;;;;;;;;;;;29.05;45.31;100110.78;4314727;33;19993;-80
2022/06/05 10:05:10;;;;;;;;;;;;;;;28.97;44.72;100107.63;4312368;33;19996;-89
2022/06/05 10:07:52;;;;;;;;;;;;;;;29.04;45.28;100109.06;4317386;33;19985;-82
2022/06/05 10:10:21;;;;;;;;;;;;;;;29.34;43.56;100110.91;4325367;33;20015;-82
2022/06/05 10:12:56;;;;;;;;;;;;;;;29.48;45.48;100110.97;4324651;33;19985;-82
2022/06/05 10:15:34;;;;;;;;;;;;;;;29.36;44.20;100115.22;4326830;33;20020;-83
2022/06/05 10:18:09;;;;;;;;;;;;;;;29.38;44.20;100107.97;4353445;32;19995;-83
2022/06/05 10:20:40;;;;;;;;;;;;;;;29.37;44.58;100110.75;4353408;32;19991;-83
2022/06/05 10:23:07;;;;;;;;;;;;;;;29.53;43.70;100110.72;4346792;32;19975;-82
2022/06/05 10:25:52;;;;;;;;;;;;;;;29.10;45.01;100103.38;4347597;32;19995;-81
2022/06/05 10:28:26;;;;;;;;;;;;;;;29.28;44.68;100105.94;4362570;32;19975;-81
2022/06/05 10:30:54;;;;;;;;;;;;;;;28.83;46.01;100099.56;4344260;32;20277;-80
2022/06/05 10:33:40;;;;;;;;;;;;;;;28.95;43.54;100099.72;4360447;32;20317;-81
2022/06/05 10:36:22;;;;;;;;;;;;;;;29.06;44.10;100091.16;4361888;32;20324;-83
2022/06/05 10:39:06;;;;;;;;;;;;;;;29.35;43.03;100091.28;4358390;32;20005;-82
2022/06/05 10:41:36;;;;;;;;;;;;;;;29.57;43.57;100080.25;4348316;32;20054;-81
2022/06/05 10:44:09;;;;;;;;;;;;;;;29.41;40.67;100082.94;4354914;32;20439;-80
2022/06/05 10:46:36;;;;;;;;;;;;;;;29.98;40.28;100075.13;4352310;32;20497;-83
2022/06/05 10:49:12;;;;;;;;;;;;;;;30.28;40.19;100068.88;4363757;32;20005;-80
2022/06/05 10:51:49;;;;;;;;;;;;;;;30.45;39.92;100074.03;4341535;32;19983;-80
2022/06/05 10:54:20;;;;;;;;;;;;;;;30.68;37.26;100069.91;4341680;32;19975;-81
2022/06/05 10:56:48;;;;;;;;;;;;;;;30.64;36.86;100062.19;4355147;32;20491;-80
2022/06/05 10:59:24;;;;;;;;;;;;;;;30.84;37.10;100060.94;4341394;32;20005;-81
2022/06/05 11:02:16;;;;;;;;;;;;;;;30.86;36.83;100062.56;4363349;32;20001;-84
2022/06/05 11:04:48;;;;;;;;;;;;;;;30.84;36.79;100053.78;4355550;32;19986;-81
2022/06/05 11:07:44;;;;;;;;;;;;;;;30.91;37.37;100057.75;4356673;32;20034;-84
2022/06/05 11:13:45;;;;;;;;;;;;;;;30.62;37.40;100053.41;4356646;32;19980;-85
2022/06/05 11:16:18;;;;;;;;;;;;;;;30.83;36.36;100049.41;4350303;32;20388;-83
2022/06/05 11:18:49;;;;;;;;;;;;;;;30.69;36.42;100052.06;4359063;32;19984;-83
2022/06/05 11:21:16;;;;;;;;;;;;;;;30.73;36.08;100056.28;4362976;32;20327;-86
2022/06/05 11:23:51;;;;;;;;;;;;;;;30.90;36.46;100061.41;4336168;32;20309;-82
2022/06/05 11:26:30;;;;;;;;;;;;;;;30.82;36.21;100055.69;4347891;32;20035;-83
2022/06/05 11:29:02;;;;;;;;;;;;;;;31.09;35.46;100062.88;4357298;32;20002;-84
2022/06/05 11:31:34;;;;;;;;;;;;;;;31.25;34.85;100059.09;4352378;32;19983;-83
2022/06/05 11:34:06;;;;;;;;;;;;;;;31.17;34.73;100061.41;4356447;32;20005;-82
2022/06/05 11:36:37;;;;;;;;;;;;;;;31.11;37.56;100052.91;4356553;32;19990;-84
2022/06/05 11:39:11;;;;;;;;;;;;;;;31.26;36.50;100057.25;4341324;32;19992;-83
2022/06/05 11:41:42;;;;;;;;;;;;;;;31.37;33.92;100061.94;4356779;32;19975;-84
2022/06/05 11:44:15;;;;;;;;;;;;;;;31.42;33.84;100060.66;4350066;32;20981;-82
2022/06/05 11:46:48;;;;;;;;;;;;;;;31.42;35.57;100049.94;4331082;32;787672;-84
2022/06/05 11:49:19;;;;;;;;;;;;;;;31.62;34.15;100045.94;4342870;32;20042;-85
2022/06/05 11:52:05;;;;;;;;;;;;;;;31.45;33.38;100038.19;4358303;32;20107;-85
2022/06/05 11:54:32;;;;;;;;;;;;;;;31.32;33.95;100032.78;4363524;32;20329;-87
2022/06/05 11:57:14;;;;;;;;;;;;;;;31.58;34.46;100038.22;4356986;32;20303;-86
2022/06/05 11:59:51;;;;;;;;;;;;;;;30.88;33.72;100039.25;4342856;32;19983;-82
2022/06/05 12:02:34;;;;;;;;;;;;;;;31.39;35.01;100023.41;4354873;32;19971;-85
2022/06/05 12:05:10;;;;;;;;;;;;;;;30.99;35.46;100020.69;4356646;32;19983;-85
2022/06/05 12:07:37;;;;;;;;;;;;;;;31.33;35.02;100023.81;4358373;32;19989;-85
2022/06/05 12:10:09;;;;;;;;;;;;;;;30.99;35.70;100015.34;4363212;32;20034;-83
2022/06/05 12:12:47;;;;;;;;;;;;;;;30.90;35.41;100002.59;4342974;32;20041;-85
2022/06/05 12:15:20;;;;;;;;;;;;;;;31.36;35.37;100004.88;4332437;32;20392;-85
2022/06/05 12:18:19;;;;;;;;;;;;;;;31.45;34.47;99996.22;4364905;32;19998;-83
2022/06/05 12:20:48;;;;;;;;;;;;;;;30.67;36.03;99993.37;4353747;32;19970;-85
2022/06/05 12:23:29;;;;;;;;;;;;;;;31.00;35.09;99995.66;4355475;32;20050;-84
2022/06/05 12:25:59;;;;;;;;;;;;;;;30.81;35.73;99993.34;4355129;32;20028;-85
2022/06/05 12:28:31;;;;;;;;;;;;;;;30.76;35.90;99998.12;4340158;32;20316;-83
2022/06/05 12:31:03;;;;;;;;;;;;;;;31.07;34.71;99993.44;4343618;32;19983;-83
2022/06/05 12:33:33;;;;;;;;;;;;;;;31.17;34.98;99981.16;4347184;32;20038;-83
2022/06/05 12:36:06;;;;;;;;;;;;;;;31.00;34.90;99979.63;4346298;32;19993;-83
2022/06/05 12:38:57;;;;;;;;;;;;;;;31.13;35.77;99968.09;4350667;32;20277;-85
2022/06/05 12:41:28;;;;;;;;;;;;;;;31.21;33.84;99981.84;4340535;32;19981;-84
2022/06/05 12:44:13;;;;;;;;;;;;;;;31.29;34.70;99968.78;4342713;32;20074;-87
2022/06/05 12:46:44;;;;;;;;;;;;;;;31.28;33.67;99967.06;4344581;32;19993;-82
2022/06/05 12:49:28;;;;;;;;;;;;;;;31.42;34.81;99974.19;4362853;32;20467;-87
2022/06/05 12:52:05;;;;;;;;;;;;;;;31.32;33.48;99968.56;4356283;32;19980;-84
2022/06/05 12:54:38;;;;;;;;;;;;;;;31.54;34.24;99965.31;4366034;32;20028;-83
2022/06/05 12:57:28;;;;;;;;;;;;;;;31.61;33.86;99952.38;4337646;32;20026;-85
2022/06/05 13:00:13;;;;;;;;;;;;;;;31.64;32.63;99957.50;4351325;32;20014;-84
2022/06/05 13:02:57;;;;;;;;;;;;;;;31.44;33.36;99957.06;4356466;32;19991;-85
2022/06/05 13:05:26;;;;;;;;;;;;;;;31.50;33.71;99962.00;4342575;32;19982;-85
2022/06/05 13:07:55;;;;;;;;;;;;;;;31.44;33.77;99951.72;4364311;32;20022;-85
2022/06/05 13:10:41;;;;;;;;;;;;;;;31.27;33.69;99949.28;4330228;32;20043;-83
2022/06/05 13:13:12;;;;;;;;;;;;;;;31.15;33.14;99944.81;4336415;32;20035;-85
2022/06/05 13:15:39;;;;;;;;;;;;;;;31.42;32.13;99948.28;4346875;32;19991;-83
2022/06/05 13:18:06;;;;;;;;;;;;;;;31.46;32.17;99927.50;4360168;32;20259;-84